createdAt,value
2022-10-23T00:00:14.976Z,14.00
2022-10-23T00:02:41.893Z,14.12
2022-10-23T00:05:09.038Z,13.69
2022-10-23T00:07:35.555Z,13.82
2022-10-23T00:10:02.173Z,13.98
2022-10-23T00:12:28.857Z,14.06
2022-10-23T00:14:55.418Z,14.07
2022-10-23T00:17:22.127Z,14.11
2022-10-23T00:19:49.165Z,14.11
2022-10-23T00:22:15.788Z,14.08
2022-10-23T00:24:42.439Z,14.09
2022-10-23T00:27:09.132Z,14.11
2022-10-23T00:29:35.638Z,13.67
2022-10-23T00:32:02.337Z,13.26
2022-10-23T00:34:28.897Z,12.94
2022-10-23T00:36:56.246Z,12.72
2022-10-23T00:39:22.789Z,12.61
2022-10-23T00:41:49.306Z,12.53
2022-10-23T00:44:18.932Z,12.87
2022-10-23T00:46:46.209Z,13.11
2022-10-23T00:49:13.438Z,13.39
2022-10-23T00:51:45.920Z,13.57
2022-10-23T00:54:29.445Z,13.40
2022-10-23T00:57:01.433Z,13.19
2022-10-23T00:59:28.566Z,12.87
2022-10-23T01:01:55.336Z,12.71
2022-10-23T01:04:22.958Z,12.72
2022-10-23T01:07:04.707Z,12.99
2022-10-23T01:09:38.105Z,12.98
2022-10-23T01:12:13.743Z,12.37
2022-10-23T01:14:54.753Z,11.90
2022-10-23T01:17:24.730Z,11.61
2022-10-23T01:20:16.309Z,11.75
2022-10-23T01:22:45.906Z,11.77
2022-10-23T01:25:40.556Z,12.33
2022-10-23T01:28:10.893Z,12.60
2022-10-23T01:33:18.346Z,12.97
2022-10-23T01:35:52.006Z,12.95
2022-10-23T01:38:27.548Z,13.09
2022-10-23T01:41:04.389Z,13.19
2022-10-23T01:43:45.344Z,13.33
2022-10-23T01:46:14.925Z,13.07
2022-10-23T01:48:43.548Z,13.19
2022-10-23T01:51:11.818Z,12.85
2022-10-23T01:53:41.301Z,12.43
2022-10-23T01:56:12.471Z,12.14
2022-10-23T01:58:40.148Z,11.86
2022-10-23T02:01:07.767Z,11.99
2022-10-23T02:03:47.208Z,11.97
2022-10-23T02:06:14.034Z,11.72
2022-10-23T02:08:40.518Z,11.78
2022-10-23T02:11:14.041Z,11.73
2022-10-23T02:13:50.680Z,12.07
2022-10-23T02:16:28.053Z,12.13
2022-10-23T02:19:15.867Z,12.16
2022-10-23T02:21:52.521Z,12.52
2022-10-23T02:24:26.123Z,12.64
2022-10-23T02:26:56.774Z,12.61
2022-10-23T02:29:28.240Z,12.81
2022-10-23T02:31:57.933Z,12.98
2022-10-23T02:34:25.300Z,13.09
2022-10-23T02:36:52.611Z,13.15
2022-10-23T02:39:22.937Z,12.87
2022-10-23T02:42:10.739Z,13.01
2022-10-23T02:44:58.958Z,12.48
2022-10-23T02:47:46.618Z,12.62
2022-10-23T02:50:42.692Z,13.02
2022-10-23T02:53:29.293Z,13.20
2022-10-23T02:56:10.099Z,13.14
2022-10-23T02:58:36.650Z,13.16
2022-10-23T03:01:06.531Z,13.25
2022-10-23T03:03:36.584Z,13.24
2022-10-23T03:06:05.059Z,13.17
2022-10-23T03:08:41.989Z,12.90
2022-10-23T03:11:08.561Z,12.61
2022-10-23T03:13:35.138Z,12.66
2022-10-23T03:16:02.565Z,12.44
2022-10-23T03:18:30.116Z,12.62
2022-10-23T03:20:59.000Z,12.72
2022-10-23T03:23:25.736Z,12.79
2022-10-23T03:25:53.554Z,12.51
2022-10-23T03:28:35.542Z,12.38
2022-10-23T03:31:02.973Z,12.46
2022-10-23T03:33:30.721Z,12.23
2022-10-23T03:36:05.875Z,12.47
2022-10-23T03:38:32.911Z,12.66
2022-10-23T03:40:59.490Z,12.78
2022-10-23T03:43:28.077Z,12.72
2022-10-23T03:45:56.614Z,12.74
2022-10-23T03:48:26.042Z,12.87
2022-10-23T03:50:59.874Z,12.97
2022-10-23T03:53:26.470Z,13.08
2022-10-23T03:55:53.043Z,12.20
2022-10-23T03:58:19.589Z,12.50
2022-10-23T04:00:46.100Z,12.47
2022-10-23T04:03:12.604Z,12.64
2022-10-23T04:05:41.172Z,12.58
2022-10-23T04:08:08.903Z,12.68
2022-10-23T04:10:35.735Z,12.83
2022-10-23T04:13:02.364Z,13.02
2022-10-23T04:15:32.632Z,13.10
2022-10-23T04:18:01.162Z,12.97
2022-10-23T04:20:27.834Z,13.10
2022-10-23T04:22:54.313Z,13.15
2022-10-23T04:25:20.903Z,13.26
2022-10-23T04:27:48.445Z,13.10
2022-10-23T04:30:15.061Z,13.01
2022-10-23T04:32:41.809Z,12.53
2022-10-23T04:35:08.751Z,11.91
2022-10-23T04:37:35.430Z,11.77
2022-10-23T04:40:01.977Z,12.01
2022-10-23T04:42:28.571Z,11.76
2022-10-23T04:44:57.149Z,11.60
2022-10-23T04:47:24.984Z,11.95
2022-10-23T04:49:57.323Z,12.32
2022-10-23T04:52:42.777Z,12.63
2022-10-23T04:55:28.601Z,12.12
2022-10-23T04:58:13.396Z,11.87
2022-10-23T05:00:41.149Z,11.97
2022-10-23T05:03:08.814Z,12.15
2022-10-23T05:05:39.719Z,12.36
2022-10-23T05:08:22.726Z,12.06
2022-10-23T05:11:17.238Z,11.99
2022-10-23T05:13:47.233Z,12.14
2022-10-23T05:16:39.902Z,12.61
2022-10-23T05:19:07.845Z,12.83
2022-10-23T05:21:35.344Z,12.78
2022-10-23T05:24:05.361Z,12.81
2022-10-23T05:26:32.114Z,12.96
2022-10-23T05:29:04.011Z,13.07
2022-10-23T05:31:30.813Z,13.10
2022-10-23T05:34:08.709Z,13.13
2022-10-23T05:36:41.347Z,13.13
2022-10-23T05:39:08.073Z,13.14
2022-10-23T05:41:35.367Z,13.17
2022-10-23T05:44:02.318Z,13.19
2022-10-23T05:46:52.118Z,12.94
2022-10-23T05:49:38.525Z,13.07
2022-10-23T05:52:25.730Z,13.28
2022-10-23T05:55:11.039Z,13.28
2022-10-23T05:57:56.070Z,13.37
2022-10-23T06:00:40.583Z,13.32
2022-10-23T06:03:27.171Z,13.24
2022-10-23T06:05:53.966Z,13.28
2022-10-23T06:08:31.792Z,13.30
2022-10-23T06:10:58.591Z,13.36
2022-10-23T06:13:25.162Z,13.35
2022-10-23T06:15:51.648Z,13.37
2022-10-23T06:18:20.531Z,13.35
2022-10-23T06:21:00.423Z,13.47
2022-10-23T06:23:27.544Z,13.48
2022-10-23T06:26:18.271Z,13.66
2022-10-23T06:29:07.746Z,13.78
2022-10-23T06:31:34.737Z,13.74
2022-10-23T06:34:02.516Z,13.76
2022-10-23T06:36:31.253Z,13.77
2022-10-23T06:39:05.962Z,13.75
2022-10-23T06:42:08.006Z,13.72
2022-10-23T06:44:53.068Z,13.72
2022-10-23T06:47:43.068Z,13.91
2022-10-23T06:50:31.119Z,13.99
2022-10-23T06:52:59.718Z,14.04
2022-10-23T06:55:26.541Z,13.99
2022-10-23T06:57:53.644Z,14.11
2022-10-23T07:00:21.493Z,14.08
2022-10-23T07:02:52.622Z,14.14
2022-10-23T07:05:19.880Z,14.19
2022-10-23T07:07:46.558Z,14.26
2022-10-23T07:10:18.580Z,14.26
2022-10-23T07:12:50.664Z,14.40
2022-10-23T07:15:29.938Z,14.56
2022-10-23T07:17:57.692Z,14.55
2022-10-23T07:20:26.389Z,14.47
2022-10-23T07:22:54.777Z,14.67
2022-10-23T07:25:30.399Z,14.79
2022-10-23T07:27:59.836Z,14.78
2022-10-23T07:30:29.993Z,14.75
2022-10-23T07:33:13.645Z,14.92
2022-10-23T07:35:52.891Z,14.88
2022-10-23T07:38:25.181Z,15.06
2022-10-23T07:40:54.118Z,15.00
2022-10-23T07:43:23.118Z,14.85
2022-10-23T07:45:55.827Z,14.76
2022-10-23T07:48:36.056Z,14.90
2022-10-23T07:51:08.421Z,14.94
2022-10-23T07:53:40.220Z,14.90
2022-10-23T07:56:31.640Z,14.74
2022-10-23T07:59:29.376Z,14.75
2022-10-23T08:02:06.453Z,14.85
2022-10-23T08:04:43.839Z,14.79
2022-10-23T08:07:21.496Z,14.97
2022-10-23T08:09:50.709Z,15.17
2022-10-23T08:12:24.874Z,15.23
2022-10-23T08:14:51.430Z,15.29
2022-10-23T08:17:18.183Z,15.63
2022-10-23T08:20:01.461Z,15.88
2022-10-23T08:22:43.918Z,16.07
2022-10-23T08:25:24.716Z,16.08
2022-10-23T08:27:54.701Z,16.23
2022-10-23T08:30:21.577Z,16.25
2022-10-23T08:32:51.830Z,16.63
2022-10-23T08:35:18.594Z,16.64
2022-10-23T08:37:45.638Z,16.88
2022-10-23T08:40:22.957Z,17.08
2022-10-23T08:43:16.436Z,17.22
2022-10-23T08:46:04.133Z,17.17
2022-10-23T08:49:00.433Z,17.28
2022-10-23T08:51:47.834Z,17.27
2022-10-23T08:54:17.055Z,17.12
2022-10-23T08:56:51.401Z,17.14
2022-10-23T08:59:26.223Z,17.15
2022-10-23T09:02:01.393Z,17.24
2022-10-23T09:04:28.610Z,17.32
2022-10-23T09:07:16.607Z,17.13
2022-10-23T09:09:52.334Z,17.30
2022-10-23T09:12:22.719Z,17.41
2022-10-23T09:17:33.251Z,17.38
2022-10-23T09:20:18.439Z,17.56
2022-10-23T09:22:46.120Z,17.46
2022-10-23T09:25:23.166Z,17.63
2022-10-23T09:27:56.090Z,17.88
2022-10-23T09:30:28.204Z,17.70
2022-10-23T09:32:54.744Z,18.01
2022-10-23T09:35:27.143Z,17.97
2022-10-23T09:37:54.973Z,18.13
2022-10-23T09:40:38.919Z,18.30
2022-10-23T09:43:17.826Z,18.33
2022-10-23T09:45:44.746Z,18.26
2022-10-23T09:48:18.141Z,18.54
2022-10-23T09:50:52.700Z,18.68
2022-10-23T09:53:40.438Z,18.62
2022-10-23T09:56:24.809Z,18.80
2022-10-23T09:58:57.891Z,18.78
2022-10-23T10:01:33.363Z,18.72
2022-10-23T10:04:39.877Z,18.88
2022-10-23T10:07:18.806Z,19.12
2022-10-23T10:09:45.806Z,19.10
2022-10-23T10:12:24.109Z,19.24
2022-10-23T10:15:01.772Z,19.36
2022-10-23T10:18:03.209Z,19.53
2022-10-23T10:20:58.705Z,19.43
2022-10-23T10:23:43.028Z,19.56
2022-10-23T10:26:38.020Z,19.58
2022-10-23T10:29:30.884Z,19.56
2022-10-23T10:32:18.051Z,19.57
2022-10-23T10:34:53.257Z,19.72
2022-10-23T10:38:10.478Z,19.88
2022-10-23T10:40:44.521Z,19.96
2022-10-23T10:43:36.865Z,20.30
2022-10-23T10:46:41.845Z,20.55
2022-10-23T10:49:31.466Z,20.72
2022-10-23T10:52:30.484Z,20.83
2022-10-23T10:55:17.999Z,21.00
2022-10-23T10:58:08.677Z,20.89
2022-10-23T11:00:35.519Z,20.86
2022-10-23T11:03:29.532Z,20.83
2022-10-23T11:05:57.614Z,20.86
2022-10-23T11:08:44.609Z,20.84
2022-10-23T11:11:34.074Z,21.03
2022-10-23T11:14:00.814Z,21.23
2022-10-23T11:16:33.915Z,21.36
2022-10-23T11:19:03.421Z,21.46
2022-10-23T11:21:54.928Z,21.48
2022-10-23T11:24:27.572Z,21.58
2022-10-23T11:27:19.789Z,21.44
2022-10-23T11:30:12.103Z,21.49
2022-10-23T11:32:45.036Z,21.57
2022-10-23T11:35:23.899Z,21.77
2022-10-23T11:38:05.596Z,21.94
2022-10-23T11:40:32.840Z,22.10
2022-10-23T11:42:59.521Z,22.23
2022-10-23T11:45:39.989Z,22.47
2022-10-23T11:48:21.587Z,22.53
2022-10-23T11:50:49.785Z,22.57
2022-10-23T11:53:31.497Z,22.57
2022-10-23T11:56:00.591Z,22.43
2022-10-23T11:58:47.254Z,22.46
2022-10-23T12:01:28.812Z,22.31
2022-10-23T12:04:13.823Z,22.48
2022-10-23T12:06:47.722Z,22.46
2022-10-23T12:09:46.441Z,22.39
2022-10-23T12:12:27.681Z,22.34
2022-10-23T12:14:54.786Z,22.41
2022-10-23T12:17:24.434Z,22.53
2022-10-23T12:19:55.238Z,22.57
2022-10-23T12:22:24.675Z,22.59
2022-10-23T12:25:13.055Z,22.77
2022-10-23T12:27:57.130Z,22.87
2022-10-23T12:30:34.635Z,22.80
2022-10-23T12:33:24.758Z,22.97
2022-10-23T12:36:25.877Z,22.92
2022-10-23T12:38:54.638Z,22.87
2022-10-23T12:41:26.766Z,23.00
2022-10-23T12:43:56.227Z,23.10
2022-10-23T12:46:41.327Z,23.20
2022-10-23T12:49:19.056Z,23.30
2022-10-23T12:51:46.501Z,22.78
2022-10-23T12:54:20.466Z,22.69
2022-10-23T12:56:47.205Z,22.89
2022-10-23T12:59:17.057Z,23.09
2022-10-23T13:01:44.760Z,23.12
2022-10-23T13:04:31.399Z,22.77
2022-10-23T13:07:00.039Z,23.09
2022-10-23T13:09:33.073Z,22.92
2022-10-23T13:12:20.774Z,23.12
2022-10-23T13:15:08.926Z,22.67
2022-10-23T13:17:43.323Z,22.95
2022-10-23T13:20:10.320Z,22.87
2022-10-23T13:22:36.981Z,22.58
2022-10-23T13:25:20.566Z,22.51
2022-10-23T13:27:47.293Z,22.40
2022-10-23T13:30:31.716Z,22.20
2022-10-23T13:32:58.310Z,21.95
2022-10-23T13:35:25.732Z,21.72
2022-10-23T13:37:53.722Z,21.64
2022-10-23T13:40:27.043Z,21.56
2022-10-23T13:42:55.148Z,21.60
2022-10-23T13:45:24.940Z,21.59
2022-10-23T13:47:51.865Z,21.47
2022-10-23T13:50:19.090Z,21.50
2022-10-23T13:52:45.784Z,21.66
2022-10-23T13:55:25.066Z,21.87
2022-10-23T13:57:52.578Z,22.00
2022-10-23T14:00:19.399Z,22.05
2022-10-23T14:02:47.009Z,22.00
2022-10-23T14:05:13.620Z,22.01
2022-10-23T14:07:40.263Z,21.95
2022-10-23T14:10:07.435Z,21.83
2022-10-23T14:12:44.525Z,21.76
2022-10-23T14:15:11.858Z,21.67
2022-10-23T14:17:38.500Z,21.67
2022-10-23T14:20:06.419Z,21.67
2022-10-23T14:22:33.239Z,21.62
2022-10-23T14:24:59.761Z,21.36
2022-10-23T14:27:26.716Z,21.37
2022-10-23T14:29:53.263Z,21.33
2022-10-23T14:32:19.771Z,21.28
2022-10-23T14:34:50.440Z,21.22
2022-10-23T14:37:18.069Z,21.23
2022-10-23T14:39:49.578Z,21.27
2022-10-23T14:42:17.389Z,21.29
2022-10-23T14:44:44.674Z,21.11
2022-10-23T14:47:11.871Z,21.17
2022-10-23T14:49:40.086Z,21.12
2022-10-23T14:52:07.914Z,20.76
2022-10-23T14:54:36.203Z,20.83
2022-10-23T14:57:03.276Z,20.90
2022-10-23T14:59:30.001Z,20.89
2022-10-23T15:01:56.600Z,20.88
2022-10-23T15:04:23.256Z,20.94
2022-10-23T15:06:49.986Z,20.92
2022-10-23T15:09:18.192Z,21.08
2022-10-23T15:11:44.806Z,20.98
2022-10-23T15:14:11.508Z,20.85
2022-10-23T15:16:41.449Z,20.93
2022-10-23T15:19:17.057Z,20.85
2022-10-23T15:21:49.282Z,20.95
2022-10-23T15:24:17.464Z,20.95
2022-10-23T15:26:44.658Z,20.93
2022-10-23T15:29:12.008Z,20.86
2022-10-23T15:31:38.528Z,20.89
2022-10-23T15:34:05.838Z,20.58
2022-10-23T15:36:32.656Z,20.76
2022-10-23T15:38:59.275Z,20.72
2022-10-23T15:41:31.195Z,20.63
2022-10-23T15:44:01.927Z,20.57
2022-10-23T15:46:28.921Z,20.51
2022-10-23T15:48:55.580Z,20.57
2022-10-23T15:51:22.142Z,20.33
2022-10-23T15:53:49.018Z,20.44
2022-10-23T15:56:15.646Z,20.24
2022-10-23T15:58:42.252Z,20.01
2022-10-23T16:01:08.974Z,19.81
2022-10-23T16:03:37.093Z,19.72
2022-10-23T16:06:16.231Z,19.83
2022-10-23T16:08:46.243Z,20.01
2022-10-23T16:11:21.817Z,20.00
2022-10-23T16:13:49.454Z,20.08
2022-10-23T16:16:16.488Z,19.81
2022-10-23T16:18:44.575Z,19.65
2022-10-23T16:21:26.414Z,19.87
2022-10-23T16:23:56.944Z,19.73
2022-10-23T16:26:23.772Z,19.25
2022-10-23T16:29:00.224Z,19.31
2022-10-23T16:31:27.849Z,19.42
2022-10-23T16:33:54.707Z,19.29
2022-10-23T16:36:21.515Z,19.35
2022-10-23T16:39:14.931Z,19.42
2022-10-23T16:41:59.935Z,19.50
2022-10-23T16:44:36.350Z,19.52
2022-10-23T16:47:05.900Z,19.50
2022-10-23T16:49:32.490Z,19.38
2022-10-23T16:51:59.095Z,19.27
2022-10-23T16:54:25.738Z,19.26
2022-10-23T16:56:52.286Z,19.26
2022-10-23T16:59:19.150Z,19.26
2022-10-23T17:01:45.839Z,19.25
2022-10-23T17:04:12.429Z,19.28
2022-10-23T17:06:38.941Z,19.27
2022-10-23T17:09:06.076Z,19.26
2022-10-23T17:11:35.248Z,19.36
2022-10-23T17:14:13.910Z,19.39
2022-10-23T17:16:44.410Z,19.56
2022-10-23T17:19:20.829Z,19.51
2022-10-23T17:21:54.531Z,19.70
2022-10-23T17:24:21.471Z,19.68
2022-10-23T17:26:48.499Z,19.29
2022-10-23T17:29:15.145Z,19.31
2022-10-23T17:31:47.413Z,19.28
2022-10-23T17:34:19.374Z,19.33
2022-10-23T17:36:49.296Z,19.29
2022-10-23T17:39:18.902Z,19.41
2022-10-23T17:41:45.734Z,19.39
2022-10-23T17:44:12.420Z,19.42
2022-10-23T17:46:39.279Z,19.24
2022-10-23T17:49:06.122Z,19.05
2022-10-23T17:51:34.151Z,19.00
2022-10-23T17:54:02.857Z,18.86
2022-10-23T17:56:31.068Z,18.90
2022-10-23T17:59:04.598Z,18.85
2022-10-23T18:01:31.649Z,18.65
2022-10-23T18:04:01.942Z,18.69
2022-10-23T18:06:34.560Z,18.68
2022-10-23T18:09:02.331Z,18.57
2022-10-23T18:11:34.376Z,18.54
2022-10-23T18:14:01.376Z,18.51
2022-10-23T18:16:28.526Z,18.46
2022-10-23T18:18:55.941Z,18.44
2022-10-23T18:21:24.147Z,18.45
2022-10-23T18:23:51.552Z,18.45
2022-10-23T18:26:24.653Z,18.46
2022-10-23T18:28:53.575Z,18.49
2022-10-23T18:31:20.714Z,18.50
2022-10-23T18:33:47.740Z,18.54
2022-10-23T18:36:23.950Z,18.54
2022-10-23T18:38:51.674Z,18.63
2022-10-23T18:41:19.604Z,18.59
2022-10-23T18:43:46.209Z,18.61
2022-10-23T18:46:13.535Z,18.69
2022-10-23T18:48:40.906Z,18.94
2022-10-23T18:51:15.913Z,19.07
2022-10-23T18:53:46.654Z,19.02
2022-10-23T18:56:14.987Z,19.31
2022-10-23T18:58:42.418Z,19.53
2022-10-23T19:01:09.178Z,19.55
2022-10-23T19:03:35.824Z,19.52
2022-10-23T19:06:02.418Z,19.39
2022-10-23T19:08:29.165Z,19.35
2022-10-23T19:10:57.469Z,19.21
2022-10-23T19:13:24.000Z,19.15
2022-10-23T19:15:50.497Z,19.11
2022-10-23T19:18:17.081Z,19.06
2022-10-23T19:20:44.086Z,18.91
2022-10-23T19:23:12.804Z,18.84
2022-10-23T19:25:45.264Z,19.11
2022-10-23T19:28:11.833Z,19.02
2022-10-23T19:30:39.233Z,18.81
2022-10-23T19:33:05.865Z,18.97
2022-10-23T19:35:32.487Z,18.80
2022-10-23T19:37:59.630Z,18.70
2022-10-23T19:40:26.194Z,18.64
2022-10-23T19:42:54.179Z,18.59
2022-10-23T19:45:20.890Z,18.59
2022-10-23T19:47:47.876Z,18.64
2022-10-23T19:50:14.538Z,18.63
2022-10-23T19:52:41.119Z,18.62
2022-10-23T19:55:08.867Z,18.69
2022-10-23T19:57:36.954Z,18.62
2022-10-23T20:00:06.042Z,18.62
2022-10-23T20:02:36.920Z,18.50
2022-10-23T20:05:07.367Z,18.77
2022-10-23T20:07:34.548Z,18.67
2022-10-23T20:10:01.374Z,18.53
2022-10-23T20:12:28.014Z,18.48
2022-10-23T20:14:55.442Z,18.47
2022-10-23T20:17:22.204Z,18.49
2022-10-23T20:19:49.345Z,18.38
2022-10-23T20:22:16.754Z,18.38
2022-10-23T20:24:43.456Z,18.29
2022-10-23T20:27:10.932Z,18.45
2022-10-23T20:29:37.795Z,18.44
2022-10-23T20:32:04.515Z,18.48
2022-10-23T20:34:31.276Z,18.47
2022-10-23T20:36:59.767Z,18.46
2022-10-23T20:39:29.560Z,18.51
2022-10-23T20:41:56.750Z,18.64
2022-10-23T20:44:24.128Z,18.68
2022-10-23T20:46:51.753Z,19.05
2022-10-23T20:49:19.014Z,18.95
2022-10-23T20:51:54.805Z,19.06
2022-10-23T20:54:26.038Z,19.07
2022-10-23T20:56:55.205Z,19.07
2022-10-23T20:59:22.437Z,19.07
2022-10-23T21:01:51.260Z,19.10
2022-10-23T21:04:21.533Z,18.96
2022-10-23T21:07:10.784Z,19.04
2022-10-23T21:09:38.994Z,19.10
2022-10-23T21:12:06.627Z,19.22
2022-10-23T21:14:34.262Z,19.13
2022-10-23T21:17:00.931Z,19.13
2022-10-23T21:19:27.581Z,19.16
2022-10-23T21:21:54.490Z,19.20
2022-10-23T21:24:21.358Z,19.16
2022-10-23T21:26:48.084Z,19.21
2022-10-23T21:29:19.475Z,19.14
2022-10-23T21:31:58.607Z,19.15
2022-10-23T21:34:26.282Z,19.09
2022-10-23T21:39:40.863Z,19.20
2022-10-23T21:42:07.561Z,19.24
2022-10-23T21:44:34.136Z,19.18
2022-10-23T21:47:00.698Z,19.14
2022-10-23T21:49:27.385Z,19.33
2022-10-23T21:51:55.084Z,19.21
2022-10-23T21:54:22.120Z,19.28
2022-10-23T21:56:50.968Z,19.26
2022-10-23T21:59:20.436Z,19.21
2022-10-23T22:01:48.126Z,19.25
2022-10-23T22:04:18.262Z,19.30
2022-10-23T22:06:45.857Z,19.17
2022-10-23T22:09:14.215Z,19.08
2022-10-23T22:11:41.210Z,19.32
2022-10-23T22:14:07.999Z,19.32
2022-10-23T22:16:34.621Z,19.39
2022-10-23T22:19:01.683Z,19.35
2022-10-23T22:21:29.776Z,19.36
2022-10-23T22:23:58.653Z,19.25
2022-10-23T22:26:47.238Z,19.23
2022-10-23T22:29:15.996Z,19.10
2022-10-23T22:31:45.685Z,18.95
2022-10-23T22:34:26.735Z,18.96
2022-10-23T22:37:00.703Z,18.89
2022-10-23T22:39:27.325Z,18.96
2022-10-23T22:41:54.037Z,18.88
2022-10-23T22:44:20.653Z,18.90
2022-10-23T22:46:47.226Z,19.02
2022-10-23T22:49:13.840Z,19.06
2022-10-23T22:51:40.538Z,19.04
2022-10-23T22:54:07.313Z,19.03
2022-10-23T22:56:34.584Z,18.86
2022-10-23T22:59:01.366Z,18.95
2022-10-23T23:01:37.412Z,19.00
2022-10-23T23:04:13.976Z,18.94
2022-10-23T23:06:50.626Z,18.90
2022-10-23T23:09:18.616Z,18.85
2022-10-23T23:11:51.755Z,18.88
2022-10-23T23:14:24.100Z,18.81
2022-10-23T23:16:52.612Z,18.74
2022-10-23T23:19:19.809Z,18.73
2022-10-23T23:21:46.367Z,18.67
2022-10-23T23:24:13.026Z,18.62
2022-10-23T23:26:39.726Z,18.81
2022-10-23T23:29:06.419Z,18.85
2022-10-23T23:31:33.364Z,18.68
2022-10-23T23:33:59.980Z,18.77
2022-10-23T23:36:27.516Z,18.81
2022-10-23T23:38:55.534Z,18.71
2022-10-23T23:41:22.936Z,18.69
2022-10-23T23:43:49.762Z,18.76
2022-10-23T23:46:17.729Z,18.85
2022-10-23T23:48:47.885Z,18.91
2022-10-23T23:51:20.349Z,18.85
2022-10-23T23:53:47.660Z,18.85
2022-10-23T23:56:14.174Z,18.83
2022-10-23T23:58:41.260Z,18.89
